createdAt,value
2018-03-25T00:01:46.746Z,17.60
2018-03-25T00:04:13.446Z,14.63
2018-03-25T00:06:40.205Z,14.60
2018-03-25T00:09:06.910Z,16.20
2018-03-25T00:11:33.615Z,18.87
2018-03-25T00:14:00.314Z,15.27
2018-03-25T00:16:26.991Z,19.67
2018-03-25T00:18:53.722Z,17.87
2018-03-25T00:21:20.476Z,17.80
2018-03-25T00:23:47.202Z,17.47
2018-03-25T00:26:13.909Z,16.20
2018-03-25T00:28:40.601Z,15.07
2018-03-25T00:31:07.317Z,16.00
2018-03-25T00:33:35.240Z,12.97
2018-03-25T00:36:01.932Z,15.40
2018-03-25T00:38:28.640Z,18.83
2018-03-25T00:40:55.321Z,15.27
2018-03-25T00:43:22.017Z,15.97
2018-03-25T00:45:48.766Z,16.77
2018-03-25T00:48:15.458Z,16.43
2018-03-25T00:50:42.145Z,18.30
2018-03-25T00:53:08.844Z,18.30
2018-03-25T00:55:35.518Z,13.80
2018-03-25T00:58:02.197Z,16.60
2018-03-25T01:00:28.944Z,19.53
2018-03-25T01:02:55.641Z,15.10
2018-03-25T01:05:22.365Z,18.17
2018-03-25T01:07:49.090Z,17.40
2018-03-25T01:10:15.812Z,18.93
2018-03-25T01:12:42.514Z,17.23
2018-03-25T01:15:09.419Z,19.10
2018-03-25T01:17:36.113Z,17.13
2018-03-25T01:20:02.853Z,15.17
2018-03-25T01:22:29.565Z,20.83
2018-03-25T01:24:56.245Z,14.20
2018-03-25T01:27:23.041Z,20.53
2018-03-25T01:29:49.746Z,17.10
2018-03-25T01:32:16.408Z,12.80
2018-03-25T01:34:43.132Z,17.13
2018-03-25T01:37:09.866Z,16.50
2018-03-25T01:39:36.575Z,16.40
2018-03-25T01:42:03.271Z,13.80
2018-03-25T01:44:29.982Z,15.00
2018-03-25T01:46:56.666Z,15.37
2018-03-25T01:49:23.518Z,19.17
2018-03-25T01:51:50.393Z,16.30
2018-03-25T01:54:17.093Z,16.97
2018-03-25T01:56:43.884Z,15.97
2018-03-25T01:59:10.573Z,19.77
2018-03-25T02:01:37.302Z,16.20
2018-03-25T02:04:04.776Z,16.60
2018-03-25T02:06:31.474Z,21.10
2018-03-25T02:08:58.146Z,10.93
2018-03-25T02:11:24.856Z,14.27
2018-03-25T02:13:51.545Z,17.50
2018-03-25T02:16:18.238Z,15.67
2018-03-25T02:18:45.144Z,17.83
2018-03-25T02:21:11.828Z,14.90
2018-03-25T02:23:38.573Z,16.10
2018-03-25T02:26:05.245Z,15.33
2018-03-25T02:28:31.953Z,22.27
2018-03-25T02:30:58.636Z,18.33
2018-03-25T02:33:25.312Z,19.20
2018-03-25T02:35:52.017Z,14.37
2018-03-25T02:38:18.701Z,16.73
2018-03-25T02:40:45.501Z,16.40
2018-03-25T02:43:12.182Z,17.77
2018-03-25T02:45:39.017Z,17.67
2018-03-25T02:48:05.731Z,18.13
2018-03-25T02:50:32.434Z,16.27
2018-03-25T02:52:59.123Z,17.23
2018-03-25T02:55:25.830Z,16.15
2018-03-25T02:57:52.533Z,19.10
2018-03-25T03:00:19.435Z,16.27
2018-03-25T03:02:46.137Z,15.10
2018-03-25T03:05:12.855Z,15.70
2018-03-25T03:07:39.540Z,17.70
2018-03-25T03:10:06.245Z,20.87
2018-03-25T03:12:33.127Z,18.33
2018-03-25T03:14:59.829Z,19.57
2018-03-25T03:17:26.606Z,17.20
2018-03-25T03:19:53.477Z,16.93
2018-03-25T03:22:20.156Z,13.73
2018-03-25T03:24:46.853Z,15.27
2018-03-25T03:27:13.570Z,18.90
2018-03-25T03:29:40.270Z,15.70
2018-03-25T03:32:06.945Z,21.20
2018-03-25T03:34:33.650Z,18.70
2018-03-25T03:37:00.325Z,20.47
2018-03-25T03:39:27.078Z,18.73
2018-03-25T03:41:53.781Z,15.60
2018-03-25T03:44:20.473Z,15.70
2018-03-25T03:46:47.167Z,15.10
2018-03-25T03:49:13.858Z,21.73
2018-03-25T03:51:40.593Z,16.97
2018-03-25T03:54:07.282Z,17.80
2018-03-25T03:56:33.981Z,14.97
2018-03-25T03:59:00.750Z,14.00
2018-03-25T04:01:27.618Z,16.53
2018-03-25T04:03:54.325Z,20.97
2018-03-25T04:06:20.994Z,15.53
2018-03-25T04:08:47.701Z,16.03
2018-03-25T04:11:14.392Z,15.88
2018-03-25T04:13:41.112Z,18.73
2018-03-25T04:16:07.800Z,14.73
2018-03-25T04:18:34.501Z,19.57
2018-03-25T04:21:01.189Z,17.85
2018-03-25T04:23:27.864Z,15.53
2018-03-25T04:25:54.658Z,18.07
2018-03-25T04:28:21.365Z,22.15
2018-03-25T04:30:48.056Z,21.40
2018-03-25T04:33:14.853Z,18.63
2018-03-25T04:35:41.554Z,20.92
2018-03-25T04:38:08.251Z,18.12
2018-03-25T04:40:35.033Z,16.27
2018-03-25T04:43:01.730Z,15.75
2018-03-25T04:45:28.502Z,14.38
2018-03-25T04:47:55.202Z,16.60
2018-03-25T04:50:21.905Z,16.20
2018-03-25T04:52:48.616Z,19.85
2018-03-25T04:55:15.298Z,16.50
2018-03-25T04:57:41.985Z,17.77
2018-03-25T05:00:08.852Z,18.37
2018-03-25T05:02:35.565Z,22.00
2018-03-25T05:05:02.365Z,17.23
2018-03-25T05:07:29.037Z,19.00
2018-03-25T05:09:55.873Z,17.73
2018-03-25T05:12:22.591Z,16.52
2018-03-25T05:14:49.297Z,17.23
2018-03-25T05:17:16.011Z,15.82
2018-03-25T05:19:42.805Z,13.62
2018-03-25T05:22:09.488Z,16.37
2018-03-25T05:24:36.201Z,16.92
2018-03-25T05:27:02.896Z,17.90
2018-03-25T05:29:29.584Z,17.98
2018-03-25T05:31:56.300Z,16.12
2018-03-25T05:34:22.998Z,17.58
2018-03-25T05:36:49.708Z,18.20
2018-03-25T05:39:16.388Z,20.97
2018-03-25T05:41:43.181Z,17.30
2018-03-25T05:44:09.883Z,17.90
2018-03-25T05:46:36.569Z,17.10
2018-03-25T05:49:03.281Z,20.98
2018-03-25T05:51:30.205Z,16.12
2018-03-25T05:53:56.982Z,15.77
2018-03-25T05:56:23.665Z,15.88
2018-03-25T05:58:50.373Z,18.00
2018-03-25T06:01:17.099Z,13.32
2018-03-25T06:03:43.759Z,20.13
2018-03-25T06:06:10.437Z,15.63
2018-03-25T06:08:37.138Z,19.87
2018-03-25T06:11:03.970Z,14.60
2018-03-25T06:13:30.657Z,14.57
2018-03-25T06:15:57.435Z,17.00
2018-03-25T06:18:24.085Z,18.33
2018-03-25T06:20:50.775Z,14.77
2018-03-25T06:23:17.486Z,18.37
2018-03-25T06:25:44.167Z,17.40
2018-03-25T06:28:10.963Z,13.30
2018-03-25T06:30:37.725Z,15.67
2018-03-25T06:33:04.429Z,13.90
2018-03-25T06:35:31.117Z,17.80
2018-03-25T06:37:57.853Z,15.50
2018-03-25T06:40:24.619Z,16.00
2018-03-25T06:42:51.322Z,16.30
2018-03-25T06:45:18.058Z,13.77
2018-03-25T06:47:45.275Z,14.33
2018-03-25T06:50:12.165Z,15.17
2018-03-25T06:52:38.846Z,17.03
2018-03-25T06:55:05.568Z,16.40
2018-03-25T06:57:32.474Z,14.60
2018-03-25T06:59:59.184Z,15.30
2018-03-25T07:02:25.869Z,17.30
2018-03-25T07:04:52.545Z,14.33
2018-03-25T07:07:19.249Z,20.07
2018-03-25T07:09:46.111Z,15.70
2018-03-25T07:12:12.807Z,16.47
2018-03-25T07:14:39.597Z,14.73
2018-03-25T07:17:06.320Z,18.77
2018-03-25T07:19:33.236Z,17.33
2018-03-25T07:21:59.924Z,18.57
2018-03-25T07:24:26.609Z,18.07
2018-03-25T07:26:53.322Z,17.70
2018-03-25T07:29:20.026Z,18.03
2018-03-25T07:31:46.710Z,19.50
2018-03-25T07:34:13.526Z,18.70
2018-03-25T07:36:40.357Z,19.63
2018-03-25T07:39:07.093Z,18.80
2018-03-25T07:41:33.782Z,17.00
2018-03-25T07:44:00.482Z,20.53
2018-03-25T07:46:27.384Z,17.57
2018-03-25T07:48:54.085Z,19.23
2018-03-25T07:51:20.794Z,18.20
2018-03-25T07:53:47.509Z,19.20
2018-03-25T07:56:14.189Z,20.70
2018-03-25T07:58:40.907Z,20.77
2018-03-25T08:01:07.601Z,21.27
2018-03-25T08:03:34.279Z,20.27
2018-03-25T08:06:00.992Z,19.87
2018-03-25T08:08:27.714Z,18.73
2018-03-25T08:10:54.400Z,20.80
2018-03-25T08:13:21.108Z,19.63
2018-03-25T08:15:47.883Z,19.67
2018-03-25T08:18:14.561Z,19.50
2018-03-25T08:20:41.269Z,20.03
2018-03-25T08:23:07.949Z,20.13
2018-03-25T08:25:34.641Z,19.83
2018-03-25T08:28:01.365Z,19.83
2018-03-25T08:30:28.117Z,17.73
2018-03-25T08:32:54.834Z,18.80
2018-03-25T08:35:21.525Z,19.00
2018-03-25T08:37:48.325Z,19.53
2018-03-25T08:40:15.185Z,20.50
2018-03-25T08:42:41.857Z,25.00
2018-03-25T08:45:08.570Z,20.63
2018-03-25T08:47:35.294Z,20.97
2018-03-25T08:50:02.026Z,19.20
2018-03-25T08:52:28.769Z,17.10
2018-03-25T08:54:55.457Z,20.23
2018-03-25T08:57:22.157Z,19.97
2018-03-25T08:59:48.880Z,17.87
2018-03-25T09:02:15.569Z,18.93
2018-03-25T09:04:42.328Z,19.57
2018-03-25T09:07:09.055Z,24.77
2018-03-25T09:09:35.852Z,19.67
2018-03-25T09:12:02.584Z,20.23
2018-03-25T09:14:29.478Z,20.77
2018-03-25T09:16:56.199Z,19.87
2018-03-25T09:19:22.933Z,18.87
2018-03-25T09:21:49.621Z,20.20
2018-03-25T09:24:16.422Z,19.53
2018-03-25T09:26:43.116Z,19.33
2018-03-25T09:29:09.814Z,21.50
2018-03-25T09:31:36.560Z,21.07
2018-03-25T09:34:03.308Z,18.50
2018-03-25T09:36:30.008Z,19.03
2018-03-25T09:38:56.710Z,21.30
2018-03-25T09:41:23.449Z,19.50
2018-03-25T09:43:50.165Z,19.47
2018-03-25T09:46:16.887Z,18.67
2018-03-25T09:48:43.706Z,19.87
2018-03-25T09:51:10.434Z,21.13
2018-03-25T09:53:37.190Z,19.70
2018-03-25T09:56:03.887Z,20.57
2018-03-25T09:58:30.634Z,19.90
2018-03-25T10:01:02.886Z,22.23
2018-03-25T10:03:30.651Z,22.63
2018-03-25T10:05:57.485Z,18.70
2018-03-25T10:08:24.249Z,18.77
2018-03-25T10:10:50.937Z,19.13
2018-03-25T10:13:17.656Z,20.40
2018-03-25T10:15:44.410Z,20.80
2018-03-25T10:18:11.126Z,22.20
2018-03-25T10:20:37.815Z,20.17
2018-03-25T10:23:04.543Z,21.10
2018-03-25T10:25:31.257Z,21.70
2018-03-25T10:27:58.095Z,23.23
2018-03-25T10:30:24.793Z,19.60
2018-03-25T10:32:51.481Z,20.77
2018-03-25T10:35:18.181Z,19.43
2018-03-25T10:37:44.908Z,22.10
2018-03-25T10:40:11.594Z,17.73
2018-03-25T10:42:38.292Z,19.80
2018-03-25T10:45:04.995Z,19.10
2018-03-25T10:47:31.699Z,17.63
2018-03-25T10:49:58.390Z,21.10
2018-03-25T10:52:25.117Z,19.97
2018-03-25T10:54:51.950Z,18.63
2018-03-25T10:57:18.720Z,18.70
2018-03-25T10:59:45.447Z,19.53
2018-03-25T11:02:12.163Z,21.17
2018-03-25T11:04:38.906Z,19.67
2018-03-25T11:07:05.626Z,17.70
2018-03-25T11:09:32.302Z,19.97
2018-03-25T11:11:59.034Z,23.93
2018-03-25T11:14:25.737Z,22.73
2018-03-25T11:16:52.527Z,19.77
2018-03-25T11:19:19.242Z,19.93
2018-03-25T11:21:46.005Z,20.00
2018-03-25T11:24:12.721Z,20.50
2018-03-25T11:26:39.446Z,17.13
2018-03-25T11:29:06.146Z,16.70
2018-03-25T11:31:32.840Z,18.40
2018-03-25T11:33:59.565Z,18.07
2018-03-25T11:36:26.343Z,17.47
2018-03-25T11:38:53.033Z,19.00
2018-03-25T11:41:19.746Z,19.93
2018-03-25T11:43:46.431Z,20.53
2018-03-25T11:46:13.133Z,20.43
2018-03-25T11:48:39.849Z,19.27
2018-03-25T11:51:06.534Z,22.63
2018-03-25T11:53:33.242Z,21.07
2018-03-25T11:56:00.046Z,20.37
2018-03-25T11:58:26.781Z,20.27
2018-03-25T12:00:53.508Z,20.07
2018-03-25T12:03:20.178Z,20.63
2018-03-25T12:05:46.899Z,21.90
2018-03-25T12:08:13.726Z,20.27
2018-03-25T12:10:40.409Z,21.07
2018-03-25T12:13:07.125Z,20.57
2018-03-25T12:15:33.832Z,23.70
2018-03-25T12:18:00.630Z,20.30
2018-03-25T12:20:27.351Z,20.83
2018-03-25T12:22:54.045Z,22.70
2018-03-25T12:25:20.758Z,19.57
2018-03-25T12:27:47.473Z,25.40
2018-03-25T12:30:14.173Z,22.37
2018-03-25T12:32:40.875Z,22.30
2018-03-25T12:35:07.641Z,20.90
2018-03-25T12:37:34.426Z,20.97
2018-03-25T12:40:01.113Z,21.63
2018-03-25T12:42:27.837Z,22.40
2018-03-25T12:44:54.564Z,22.50
2018-03-25T12:47:21.262Z,24.37
2018-03-25T12:49:47.981Z,22.20
2018-03-25T12:52:14.822Z,27.13
2018-03-25T12:54:41.531Z,26.90
2018-03-25T12:57:08.355Z,25.93
2018-03-25T12:59:35.037Z,24.17
2018-03-25T13:02:01.778Z,24.17
2018-03-25T13:04:28.502Z,24.10
2018-03-25T13:06:55.189Z,23.60
2018-03-25T13:09:21.957Z,25.63
2018-03-25T13:11:48.713Z,26.43
2018-03-25T13:14:15.414Z,23.30
2018-03-25T13:16:42.133Z,24.77
2018-03-25T13:19:08.819Z,27.37
2018-03-25T13:21:35.505Z,23.70
2018-03-25T13:24:02.230Z,24.00
2018-03-25T13:26:28.920Z,26.70
2018-03-25T13:28:55.748Z,26.60
2018-03-25T13:31:22.398Z,26.00
2018-03-25T13:33:49.104Z,24.07
2018-03-25T13:36:15.786Z,33.27
2018-03-25T13:38:42.570Z,25.27
2018-03-25T13:41:09.296Z,28.50
2018-03-25T13:43:36.027Z,29.40
2018-03-25T13:46:02.709Z,27.47
2018-03-25T13:48:29.392Z,28.80
2018-03-25T13:50:56.095Z,27.37
2018-03-25T13:53:22.802Z,31.03
2018-03-25T13:55:49.504Z,26.20
2018-03-25T13:58:16.332Z,27.40
2018-03-25T14:00:43.048Z,25.17
2018-03-25T14:03:09.746Z,27.93
2018-03-25T14:05:36.435Z,26.77
2018-03-25T14:08:03.141Z,26.73
2018-03-25T14:10:29.912Z,27.43
2018-03-25T14:12:56.682Z,28.27
2018-03-25T14:15:23.320Z,25.47
2018-03-25T14:17:50.248Z,28.30
2018-03-25T14:20:16.936Z,26.63
2018-03-25T14:22:43.682Z,28.03
2018-03-25T14:25:10.382Z,27.63
2018-03-25T14:27:37.097Z,30.83
2018-03-25T14:30:03.797Z,25.33
2018-03-25T14:32:30.504Z,29.93
2018-03-25T14:34:57.246Z,28.37
2018-03-25T14:37:23.998Z,26.67
2018-03-25T14:39:50.717Z,28.70
2018-03-25T14:42:17.394Z,29.23
2018-03-25T14:44:44.200Z,29.97
2018-03-25T14:47:10.869Z,29.40
2018-03-25T14:49:37.579Z,29.17
2018-03-25T14:52:04.265Z,31.67
2018-03-25T14:54:31.014Z,33.20
2018-03-25T14:56:57.754Z,33.33
2018-03-25T14:59:24.485Z,31.43
2018-03-25T15:01:51.174Z,34.83
2018-03-25T15:04:17.900Z,33.90
2018-03-25T15:06:44.609Z,32.63
2018-03-25T15:09:11.309Z,34.07
2018-03-25T15:11:38.009Z,30.37
2018-03-25T15:14:04.878Z,32.07
2018-03-25T15:16:31.571Z,30.73
2018-03-25T15:18:58.269Z,30.57
2018-03-25T15:21:24.991Z,29.67
2018-03-25T15:23:51.690Z,31.40
2018-03-25T15:26:18.385Z,33.10
2018-03-25T15:28:45.109Z,33.13
2018-03-25T15:31:11.805Z,29.83
2018-03-25T15:33:38.521Z,29.93
2018-03-25T15:36:05.234Z,28.97
2018-03-25T15:38:31.937Z,27.00
2018-03-25T15:40:58.646Z,29.00
2018-03-25T15:43:25.339Z,27.53
2018-03-25T15:45:52.039Z,30.77
2018-03-25T15:48:18.726Z,32.83
2018-03-25T15:50:45.452Z,28.43
2018-03-25T15:53:12.144Z,27.67
2018-03-25T15:55:38.842Z,24.83
2018-03-25T15:58:05.563Z,27.07
2018-03-25T16:00:32.284Z,26.27
2018-03-25T16:02:58.984Z,23.73
2018-03-25T16:05:25.698Z,25.40
2018-03-25T16:07:52.412Z,25.90
2018-03-25T16:10:19.114Z,28.70
2018-03-25T16:12:45.815Z,26.13
2018-03-25T16:15:12.494Z,24.27
2018-03-25T16:17:39.205Z,24.13
2018-03-25T16:20:05.918Z,23.37
2018-03-25T16:22:32.616Z,23.10
2018-03-25T16:24:59.513Z,25.07
2018-03-25T16:27:26.212Z,25.67
2018-03-25T16:29:52.917Z,27.93
2018-03-25T16:32:19.622Z,24.23
2018-03-25T16:34:46.326Z,25.50
2018-03-25T16:37:13.043Z,25.77
2018-03-25T16:39:39.749Z,27.03
2018-03-25T16:42:06.451Z,25.60
2018-03-25T16:44:33.182Z,25.13
2018-03-25T16:46:59.882Z,25.03
2018-03-25T16:49:26.633Z,26.63
2018-03-25T16:51:53.327Z,26.57
2018-03-25T16:54:20.022Z,25.17
2018-03-25T16:56:46.730Z,26.70
2018-03-25T16:59:13.519Z,21.57
2018-03-25T17:01:40.331Z,22.20
2018-03-25T17:04:07.082Z,24.45
2018-03-25T17:06:33.787Z,22.83
2018-03-25T17:09:00.526Z,25.23
2018-03-25T17:11:27.270Z,25.10
2018-03-25T17:13:54.002Z,26.03
2018-03-25T17:16:20.708Z,26.53
2018-03-25T17:18:47.394Z,27.83
2018-03-25T17:21:14.123Z,28.07
2018-03-25T17:23:40.923Z,27.77
2018-03-25T17:26:07.694Z,26.67
2018-03-25T17:28:34.391Z,26.07
2018-03-25T17:31:01.123Z,27.00
2018-03-25T17:33:27.853Z,22.10
2018-03-25T17:35:54.646Z,27.50
2018-03-25T17:38:21.343Z,24.70
2018-03-25T17:40:48.068Z,25.50
2018-03-25T17:43:14.802Z,23.53
2018-03-25T17:45:41.487Z,26.00
2018-03-25T17:48:08.203Z,24.33
2018-03-25T17:50:34.956Z,23.73
2018-03-25T17:53:01.650Z,24.50
2018-03-25T17:55:28.348Z,21.43
2018-03-25T17:57:55.080Z,26.97
2018-03-25T18:00:21.835Z,25.27
2018-03-25T18:02:48.529Z,23.60
2018-03-25T18:05:15.221Z,23.63
2018-03-25T18:07:41.914Z,27.07
2018-03-25T18:10:08.624Z,23.70
2018-03-25T18:12:35.356Z,25.00
2018-03-25T18:15:02.080Z,23.53
2018-03-25T18:17:34.098Z,24.20
2018-03-25T18:19:55.608Z,22.10
2018-03-25T18:22:22.392Z,22.50
2018-03-25T18:24:49.086Z,22.63
2018-03-25T18:27:15.807Z,25.03
2018-03-25T18:29:42.512Z,22.80
2018-03-25T18:32:09.213Z,23.20
2018-03-25T18:34:35.944Z,23.70
2018-03-25T18:37:02.741Z,25.83
2018-03-25T18:39:29.481Z,23.00
2018-03-25T18:41:56.196Z,25.50
2018-03-25T18:44:22.905Z,22.13
2018-03-25T18:46:49.837Z,23.23
2018-03-25T18:49:16.596Z,22.23
2018-03-25T18:51:43.265Z,22.90
2018-03-25T18:54:09.963Z,26.70
2018-03-25T18:56:36.677Z,22.03
2018-03-25T18:59:03.393Z,23.03
2018-03-25T19:01:30.716Z,23.80
2018-03-25T19:03:57.563Z,22.13
2018-03-25T19:06:24.293Z,22.60
2018-03-25T19:08:51.212Z,23.30
2018-03-25T19:11:17.947Z,25.93
2018-03-25T19:13:44.820Z,23.90
2018-03-25T19:16:11.686Z,29.40
2018-03-25T19:18:38.421Z,30.77
2018-03-25T19:21:05.142Z,32.40
2018-03-25T19:23:31.949Z,33.73
2018-03-25T19:25:58.717Z,32.07
2018-03-25T19:28:25.431Z,29.37
2018-03-25T19:30:52.192Z,32.90
2018-03-25T19:33:19.012Z,31.03
2018-03-25T19:35:45.744Z,32.23
2018-03-25T19:38:12.431Z,31.37
2018-03-25T19:40:39.102Z,29.97
2018-03-25T19:43:05.840Z,30.37
2018-03-25T19:45:32.635Z,32.03
2018-03-25T19:47:59.335Z,31.10
2018-03-25T19:50:26.086Z,32.13
2018-03-25T19:52:52.849Z,32.77
2018-03-25T19:55:19.573Z,31.97
2018-03-25T19:57:46.250Z,32.33
2018-03-25T20:00:12.989Z,33.50
2018-03-25T20:02:39.716Z,31.93
2018-03-25T20:05:06.459Z,33.43
2018-03-25T20:07:33.160Z,30.13
2018-03-25T20:10:00.629Z,36.13
2018-03-25T20:12:27.337Z,32.27
2018-03-25T20:14:54.054Z,34.57
2018-03-25T20:17:20.785Z,32.47
2018-03-25T20:19:47.517Z,32.13
2018-03-25T20:22:14.277Z,37.00
2018-03-25T20:24:40.940Z,29.87
2018-03-25T20:27:07.695Z,29.03
2018-03-25T20:29:34.605Z,37.40
2018-03-25T20:32:01.329Z,32.37
2018-03-25T20:34:28.385Z,31.77
2018-03-25T20:36:55.127Z,30.43
2018-03-25T20:39:21.827Z,30.77
2018-03-25T20:41:48.528Z,31.87
2018-03-25T20:44:15.636Z,34.40
2018-03-25T20:46:42.318Z,30.30
2018-03-25T20:49:09.112Z,35.80
2018-03-25T20:51:35.874Z,36.73
2018-03-25T20:54:02.614Z,30.07
2018-03-25T20:56:29.314Z,33.93
2018-03-25T20:58:56.018Z,33.23
2018-03-25T21:01:22.719Z,35.00
2018-03-25T21:03:50.287Z,35.40
2018-03-25T21:06:16.985Z,34.97
2018-03-25T21:08:43.694Z,34.93
2018-03-25T21:11:10.478Z,36.63
2018-03-25T21:13:37.339Z,33.47
2018-03-25T21:16:04.066Z,32.77
2018-03-25T21:18:30.835Z,32.20
2018-03-25T21:20:57.537Z,38.23
2018-03-25T21:23:24.236Z,37.97
2018-03-25T21:25:50.967Z,35.57
2018-03-25T21:28:17.893Z,34.67
2018-03-25T21:30:44.584Z,35.47
2018-03-25T21:33:11.280Z,32.17
2018-03-25T21:35:37.974Z,33.77
2018-03-25T21:38:04.689Z,33.67
2018-03-25T21:40:31.433Z,30.77
2018-03-25T21:42:58.176Z,33.17
2018-03-25T21:45:24.890Z,33.30
2018-03-25T21:47:51.665Z,33.30
2018-03-25T21:50:18.405Z,34.80
2018-03-25T21:52:45.110Z,33.30
2018-03-25T21:55:11.814Z,31.90
2018-03-25T21:57:38.526Z,34.20
2018-03-25T22:00:05.369Z,33.63
2018-03-25T22:02:32.078Z,37.40
2018-03-25T22:04:58.802Z,34.30
2018-03-25T22:07:25.487Z,38.97
2018-03-25T22:09:52.212Z,39.40
2018-03-25T22:12:18.933Z,41.43
2018-03-25T22:14:45.692Z,36.40
2018-03-25T22:17:12.377Z,39.50
2018-03-25T22:19:39.100Z,46.50
2018-03-25T22:22:06.040Z,42.87
2018-03-25T22:24:32.737Z,39.27
2018-03-25T22:26:59.442Z,41.23
2018-03-25T22:29:26.174Z,45.93
2018-03-25T22:31:52.880Z,49.23
2018-03-25T22:34:19.753Z,42.70
2018-03-25T22:36:46.485Z,44.03
2018-03-25T22:39:13.172Z,48.60
2018-03-25T22:41:39.870Z,46.43
2018-03-25T22:44:06.576Z,49.90
2018-03-25T22:46:33.271Z,50.00
2018-03-25T22:49:00.022Z,54.30
2018-03-25T22:51:26.714Z,54.57
2018-03-25T22:53:53.413Z,56.90
2018-03-25T22:56:20.105Z,54.27
2018-03-25T22:58:46.822Z,55.13
2018-03-25T23:01:13.510Z,53.67
2018-03-25T23:03:40.264Z,61.97
2018-03-25T23:06:06.957Z,62.67
2018-03-25T23:08:33.694Z,66.17
2018-03-25T23:11:00.419Z,71.30
2018-03-25T23:13:27.115Z,71.03
2018-03-25T23:15:53.854Z,64.40
2018-03-25T23:18:20.552Z,67.30
2018-03-25T23:20:47.318Z,68.53
2018-03-25T23:23:14.126Z,71.70
2018-03-25T23:25:40.841Z,65.70
2018-03-25T23:28:07.542Z,72.73
2018-03-25T23:30:34.239Z,75.00
2018-03-25T23:33:00.944Z,76.60
2018-03-25T23:35:27.632Z,79.70
2018-03-25T23:37:54.357Z,71.10
2018-03-25T23:40:21.052Z,77.90
2018-03-25T23:42:47.748Z,80.50
2018-03-25T23:45:14.528Z,72.63
2018-03-25T23:47:41.218Z,78.87
2018-03-25T23:50:07.898Z,76.80
2018-03-25T23:52:34.586Z,79.03
2018-03-25T23:55:01.298Z,81.73
2018-03-25T23:57:27.985Z,81.00
2018-03-25T23:59:54.694Z,80.77
